sensor_id;sensor_type;location;lat;lon;timestamp;P1;durP1;ratioP1;P2;durP2;ratioP2
61709;SDS011;47633;51.494;5.386;2023-07-13T00:01:44;4.55;;;1.40;;
61709;SDS011;47633;51.494;5.386;2023-07-13T00:04:11;5.00;;;1.35;;
61709;SDS011;47633;51.494;5.386;2023-07-13T00:06:37;4.03;;;1.67;;
61709;SDS011;47633;51.494;5.386;2023-07-13T00:09:02;5.78;;;1.35;;
61709;SDS011;47633;51.494;5.386;2023-07-13T00:11:27;3.28;;;1.10;;
61709;SDS011;47633;51.494;5.386;2023-07-13T00:13:53;4.53;;;1.00;;
61709;SDS011;47633;51.494;5.386;2023-07-13T00:16:18;5.05;;;1.30;;
61709;SDS011;47633;51.494;5.386;2023-07-13T00:18:44;2.83;;;1.10;;
61709;SDS011;47633;51.494;5.386;2023-07-13T00:21:11;2.83;;;1.20;;
61709;SDS011;47633;51.494;5.386;2023-07-13T00:23:38;3.15;;;1.00;;
61709;SDS011;47633;51.494;5.386;2023-07-13T00:26:06;4.88;;;1.48;;
61709;SDS011;47633;51.494;5.386;2023-07-13T00:28:33;2.53;;;1.10;;
61709;SDS011;47633;51.494;5.386;2023-07-13T00:30:59;3.40;;;1.00;;
61709;SDS011;47633;51.494;5.386;2023-07-13T00:33:24;3.15;;;1.00;;
61709;SDS011;47633;51.494;5.386;2023-07-13T00:35:50;3.70;;;1.10;;
61709;SDS011;47633;51.494;5.386;2023-07-13T00:38:16;4.05;;;1.38;;
61709;SDS011;47633;51.494;5.386;2023-07-13T00:40:41;4.32;;;1.42;;
61709;SDS011;47633;51.494;5.386;2023-07-13T00:43:17;3.75;;;1.30;;
61709;SDS011;47633;51.494;5.386;2023-07-13T00:48:10;5.88;;;1.38;;
61709;SDS011;47633;51.494;5.386;2023-07-13T00:50:38;4.88;;;1.38;;
61709;SDS011;47633;51.494;5.386;2023-07-13T00:53:05;4.07;;;1.40;;
61709;SDS011;47633;51.494;5.386;2023-07-13T00:55:31;3.45;;;1.23;;
61709;SDS011;47633;51.494;5.386;2023-07-13T00:57:56;3.25;;;1.20;;
61709;SDS011;47633;51.494;5.386;2023-07-13T01:00:23;3.72;;;1.33;;
61709;SDS011;47633;51.494;5.386;2023-07-13T01:02:51;4.55;;;1.42;;
61709;SDS011;47633;51.494;5.386;2023-07-13T01:05:17;4.35;;;1.30;;
61709;SDS011;47633;51.494;5.386;2023-07-13T01:07:46;3.92;;;1.30;;
61709;SDS011;47633;51.494;5.386;2023-07-13T01:10:14;3.25;;;1.23;;
61709;SDS011;47633;51.494;5.386;2023-07-13T01:12:40;3.25;;;1.20;;
61709;SDS011;47633;51.494;5.386;2023-07-13T01:15:06;4.28;;;1.38;;
61709;SDS011;47633;51.494;5.386;2023-07-13T01:18:00;4.78;;;1.42;;
61709;SDS011;47633;51.494;5.386;2023-07-13T01:20:25;3.95;;;1.30;;
61709;SDS011;47633;51.494;5.386;2023-07-13T01:22:51;5.63;;;1.40;;
61709;SDS011;47633;51.494;5.386;2023-07-13T01:25:18;4.03;;;1.30;;
61709;SDS011;47633;51.494;5.386;2023-07-13T01:27:43;4.90;;;1.40;;
61709;SDS011;47633;51.494;5.386;2023-07-13T01:30:09;4.15;;;1.58;;
61709;SDS011;47633;51.494;5.386;2023-07-13T01:32:35;4.97;;;1.13;;
61709;SDS011;47633;51.494;5.386;2023-07-13T01:35:01;3.88;;;1.30;;
61709;SDS011;47633;51.494;5.386;2023-07-13T01:37:27;4.10;;;1.15;;
61709;SDS011;47633;51.494;5.386;2023-07-13T01:39:52;3.90;;;1.13;;
61709;SDS011;47633;51.494;5.386;2023-07-13T01:42:18;3.60;;;1.23;;
61709;SDS011;47633;51.494;5.386;2023-07-13T01:44:43;4.32;;;1.33;;
61709;SDS011;47633;51.494;5.386;2023-07-13T01:47:09;2.50;;;1.00;;
61709;SDS011;47633;51.494;5.386;2023-07-13T01:49:36;5.07;;;1.35;;
61709;SDS011;47633;51.494;5.386;2023-07-13T01:52:02;3.08;;;1.00;;
61709;SDS011;47633;51.494;5.386;2023-07-13T01:54:28;3.35;;;1.15;;
61709;SDS011;47633;51.494;5.386;2023-07-13T01:56:53;2.50;;;1.00;;
61709;SDS011;47633;51.494;5.386;2023-07-13T01:59:18;3.63;;;1.20;;
61709;SDS011;47633;51.494;5.386;2023-07-13T02:01:44;4.72;;;1.20;;
61709;SDS011;47633;51.494;5.386;2023-07-13T02:04:09;3.58;;;1.20;;
61709;SDS011;47633;51.494;5.386;2023-07-13T02:06:35;4.28;;;1.25;;
61709;SDS011;47633;51.494;5.386;2023-07-13T02:09:01;3.63;;;1.23;;
61709;SDS011;47633;51.494;5.386;2023-07-13T02:11:26;3.67;;;1.20;;
61709;SDS011;47633;51.494;5.386;2023-07-13T02:13:57;5.10;;;1.20;;
61709;SDS011;47633;51.494;5.386;2023-07-13T02:16:24;5.45;;;1.30;;
61709;SDS011;47633;51.494;5.386;2023-07-13T02:18:49;5.03;;;1.10;;
61709;SDS011;47633;51.494;5.386;2023-07-13T02:21:17;3.63;;;1.20;;
61709;SDS011;47633;51.494;5.386;2023-07-13T02:23:42;3.35;;;1.10;;
61709;SDS011;47633;51.494;5.386;2023-07-13T02:26:08;3.67;;;1.30;;
61709;SDS011;47633;51.494;5.386;2023-07-13T02:28:33;3.25;;;1.10;;
61709;SDS011;47633;51.494;5.386;2023-07-13T02:31:06;8.32;;;1.20;;
61709;SDS011;47633;51.494;5.386;2023-07-13T02:33:33;4.05;;;1.33;;
61709;SDS011;47633;51.494;5.386;2023-07-13T02:35:59;3.28;;;1.08;;
61709;SDS011;47633;51.494;5.386;2023-07-13T02:38:24;3.42;;;1.10;;
61709;SDS011;47633;51.494;5.386;2023-07-13T02:40:50;2.92;;;1.05;;
61709;SDS011;47633;51.494;5.386;2023-07-13T02:43:15;4.47;;;1.00;;
61709;SDS011;47633;51.494;5.386;2023-07-13T02:45:44;3.30;;;1.20;;
61709;SDS011;47633;51.494;5.386;2023-07-13T02:48:10;4.72;;;1.30;;
61709;SDS011;47633;51.494;5.386;2023-07-13T02:50:36;4.88;;;1.27;;
61709;SDS011;47633;51.494;5.386;2023-07-13T02:53:01;4.00;;;1.15;;
61709;SDS011;47633;51.494;5.386;2023-07-13T02:55:27;3.67;;;1.00;;
61709;SDS011;47633;51.494;5.386;2023-07-13T02:57:52;4.03;;;1.10;;
61709;SDS011;47633;51.494;5.386;2023-07-13T03:00:19;4.50;;;1.27;;
61709;SDS011;47633;51.494;5.386;2023-07-13T03:02:45;3.42;;;0.95;;
61709;SDS011;47633;51.494;5.386;2023-07-13T03:05:10;3.63;;;1.10;;
61709;SDS011;47633;51.494;5.386;2023-07-13T03:07:37;3.42;;;1.00;;
61709;SDS011;47633;51.494;5.386;2023-07-13T03:10:03;3.80;;;1.08;;
61709;SDS011;47633;51.494;5.386;2023-07-13T03:12:29;4.20;;;0.93;;
61709;SDS011;47633;51.494;5.386;2023-07-13T03:14:54;3.70;;;1.20;;
61709;SDS011;47633;51.494;5.386;2023-07-13T03:17:20;4.80;;;1.20;;
61709;SDS011;47633;51.494;5.386;2023-07-13T03:19:45;5.30;;;1.40;;
61709;SDS011;47633;51.494;5.386;2023-07-13T03:22:14;5.07;;;1.20;;
61709;SDS011;47633;51.494;5.386;2023-07-13T03:24:40;6.85;;;1.17;;
61709;SDS011;47633;51.494;5.386;2023-07-13T03:27:05;3.90;;;1.20;;
61709;SDS011;47633;51.494;5.386;2023-07-13T03:29:31;4.28;;;1.20;;
61709;SDS011;47633;51.494;5.386;2023-07-13T03:31:57;3.85;;;1.30;;
61709;SDS011;47633;51.494;5.386;2023-07-13T03:34:22;4.22;;;1.15;;
61709;SDS011;47633;51.494;5.386;2023-07-13T03:36:47;4.85;;;1.00;;
61709;SDS011;47633;51.494;5.386;2023-07-13T03:39:13;5.18;;;1.42;;
61709;SDS011;47633;51.494;5.386;2023-07-13T03:41:38;3.95;;;1.48;;
61709;SDS011;47633;51.494;5.386;2023-07-13T03:44:04;4.55;;;1.40;;
61709;SDS011;47633;51.494;5.386;2023-07-13T03:46:29;4.60;;;1.02;;
61709;SDS011;47633;51.494;5.386;2023-07-13T03:48:55;3.63;;;1.30;;
61709;SDS011;47633;51.494;5.386;2023-07-13T03:51:20;3.72;;;1.23;;
61709;SDS011;47633;51.494;5.386;2023-07-13T03:53:46;4.18;;;1.23;;
61709;SDS011;47633;51.494;5.386;2023-07-13T03:56:13;3.03;;;1.00;;
61709;SDS011;47633;51.494;5.386;2023-07-13T03:58:40;4.63;;;1.50;;
61709;SDS011;47633;51.494;5.386;2023-07-13T04:01:08;4.20;;;1.13;;
61709;SDS011;47633;51.494;5.386;2023-07-13T04:03:35;3.65;;;1.15;;
61709;SDS011;47633;51.494;5.386;2023-07-13T04:06:01;4.38;;;1.20;;
61709;SDS011;47633;51.494;5.386;2023-07-13T04:08:30;4.00;;;1.40;;
61709;SDS011;47633;51.494;5.386;2023-07-13T04:10:57;5.07;;;1.42;;
61709;SDS011;47633;51.494;5.386;2023-07-13T04:13:23;5.03;;;1.45;;
61709;SDS011;47633;51.494;5.386;2023-07-13T04:15:49;5.35;;;1.60;;
61709;SDS011;47633;51.494;5.386;2023-07-13T04:18:15;4.95;;;1.50;;
61709;SDS011;47633;51.494;5.386;2023-07-13T04:20:40;3.72;;;1.30;;
61709;SDS011;47633;51.494;5.386;2023-07-13T04:23:05;5.80;;;1.45;;
61709;SDS011;47633;51.494;5.386;2023-07-13T04:25:31;3.85;;;1.38;;
61709;SDS011;47633;51.494;5.386;2023-07-13T04:27:56;3.22;;;1.50;;
61709;SDS011;47633;51.494;5.386;2023-07-13T04:30:22;4.78;;;1.38;;
61709;SDS011;47633;51.494;5.386;2023-07-13T04:32:49;4.53;;;1.40;;
61709;SDS011;47633;51.494;5.386;2023-07-13T04:35:16;4.78;;;1.55;;
61709;SDS011;47633;51.494;5.386;2023-07-13T04:37:42;4.28;;;1.45;;
61709;SDS011;47633;51.494;5.386;2023-07-13T04:40:08;5.30;;;1.50;;
61709;SDS011;47633;51.494;5.386;2023-07-13T04:42:36;5.50;;;1.73;;
61709;SDS011;47633;51.494;5.386;2023-07-13T04:45:02;6.50;;;1.63;;
61709;SDS011;47633;51.494;5.386;2023-07-13T04:47:29;6.05;;;2.00;;
61709;SDS011;47633;51.494;5.386;2023-07-13T04:49:55;5.32;;;1.70;;
61709;SDS011;47633;51.494;5.386;2023-07-13T04:52:22;4.88;;;1.70;;
61709;SDS011;47633;51.494;5.386;2023-07-13T04:54:48;5.25;;;1.88;;
61709;SDS011;47633;51.494;5.386;2023-07-13T04:57:13;5.57;;;1.80;;
61709;SDS011;47633;51.494;5.386;2023-07-13T04:59:38;5.05;;;2.03;;
61709;SDS011;47633;51.494;5.386;2023-07-13T05:02:04;9.30;;;2.25;;
61709;SDS011;47633;51.494;5.386;2023-07-13T05:04:29;4.85;;;2.00;;
61709;SDS011;47633;51.494;5.386;2023-07-13T05:06:55;7.47;;;2.22;;
61709;SDS011;47633;51.494;5.386;2023-07-13T05:09:20;7.55;;;2.40;;
61709;SDS011;47633;51.494;5.386;2023-07-13T05:11:45;6.63;;;2.63;;
61709;SDS011;47633;51.494;5.386;2023-07-13T05:14:11;5.03;;;2.20;;
61709;SDS011;47633;51.494;5.386;2023-07-13T05:16:36;7.22;;;2.55;;
61709;SDS011;47633;51.494;5.386;2023-07-13T05:19:02;6.28;;;2.40;;
61709;SDS011;47633;51.494;5.386;2023-07-13T05:21:28;7.47;;;2.83;;
61709;SDS011;47633;51.494;5.386;2023-07-13T05:23:53;5.97;;;2.80;;
61709;SDS011;47633;51.494;5.386;2023-07-13T05:26:18;6.25;;;2.60;;
61709;SDS011;47633;51.494;5.386;2023-07-13T05:28:45;7.25;;;2.95;;
61709;SDS011;47633;51.494;5.386;2023-07-13T05:31:11;8.75;;;3.13;;
61709;SDS011;47633;51.494;5.386;2023-07-13T05:33:37;6.35;;;2.78;;
61709;SDS011;47633;51.494;5.386;2023-07-13T05:36:03;8.20;;;3.60;;
61709;SDS011;47633;51.494;5.386;2023-07-13T05:38:29;9.18;;;3.38;;
61709;SDS011;47633;51.494;5.386;2023-07-13T05:40:55;8.77;;;3.55;;
61709;SDS011;47633;51.494;5.386;2023-07-13T05:43:21;8.93;;;3.45;;
61709;SDS011;47633;51.494;5.386;2023-07-13T05:45:47;8.55;;;3.22;;
61709;SDS011;47633;51.494;5.386;2023-07-13T05:48:14;7.70;;;3.30;;
61709;SDS011;47633;51.494;5.386;2023-07-13T05:50:40;7.60;;;2.90;;
61709;SDS011;47633;51.494;5.386;2023-07-13T05:53:05;8.45;;;3.10;;
61709;SDS011;47633;51.494;5.386;2023-07-13T05:55:31;9.75;;;3.40;;
61709;SDS011;47633;51.494;5.386;2023-07-13T05:57:57;8.38;;;3.63;;
61709;SDS011;47633;51.494;5.386;2023-07-13T06:00:23;8.32;;;3.22;;
61709;SDS011;47633;51.494;5.386;2023-07-13T06:02:49;9.90;;;3.72;;
61709;SDS011;47633;51.494;5.386;2023-07-13T06:05:14;8.90;;;3.03;;
61709;SDS011;47633;51.494;5.386;2023-07-13T06:07:41;7.68;;;3.47;;
61709;SDS011;47633;51.494;5.386;2023-07-13T06:10:07;7.95;;;3.60;;
61709;SDS011;47633;51.494;5.386;2023-07-13T06:12:32;8.15;;;3.15;;
61709;SDS011;47633;51.494;5.386;2023-07-13T06:14:58;7.97;;;3.50;;
61709;SDS011;47633;51.494;5.386;2023-07-13T06:17:23;7.63;;;3.17;;
61709;SDS011;47633;51.494;5.386;2023-07-13T06:19:48;8.02;;;3.63;;
61709;SDS011;47633;51.494;5.386;2023-07-13T06:22:14;8.27;;;3.50;;
61709;SDS011;47633;51.494;5.386;2023-07-13T06:24:39;8.85;;;3.60;;
61709;SDS011;47633;51.494;5.386;2023-07-13T06:27:04;6.47;;;3.30;;
61709;SDS011;47633;51.494;5.386;2023-07-13T06:29:30;6.90;;;3.45;;
61709;SDS011;47633;51.494;5.386;2023-07-13T06:31:56;7.70;;;3.65;;
61709;SDS011;47633;51.494;5.386;2023-07-13T06:34:22;8.90;;;3.67;;
61709;SDS011;47633;51.494;5.386;2023-07-13T06:36:47;9.88;;;4.00;;
61709;SDS011;47633;51.494;5.386;2023-07-13T06:39:13;7.90;;;3.28;;
61709;SDS011;47633;51.494;5.386;2023-07-13T06:41:38;9.57;;;3.70;;
61709;SDS011;47633;51.494;5.386;2023-07-13T06:44:04;8.73;;;3.40;;
61709;SDS011;47633;51.494;5.386;2023-07-13T06:46:30;7.43;;;3.50;;
61709;SDS011;47633;51.494;5.386;2023-07-13T06:48:55;8.35;;;4.00;;
61709;SDS011;47633;51.494;5.386;2023-07-13T06:51:21;7.97;;;3.95;;
61709;SDS011;47633;51.494;5.386;2023-07-13T06:53:46;12.35;;;5.10;;
61709;SDS011;47633;51.494;5.386;2023-07-13T06:56:12;12.32;;;5.07;;
61709;SDS011;47633;51.494;5.386;2023-07-13T06:58:38;13.02;;;5.03;;
61709;SDS011;47633;51.494;5.386;2023-07-13T07:01:03;15.30;;;5.85;;
61709;SDS011;47633;51.494;5.386;2023-07-13T07:03:30;12.35;;;5.38;;
61709;SDS011;47633;51.494;5.386;2023-07-13T07:06:03;14.30;;;5.75;;
61709;SDS011;47633;51.494;5.386;2023-07-13T07:08:40;15.35;;;5.38;;
61709;SDS011;47633;51.494;5.386;2023-07-13T07:11:08;13.88;;;6.00;;
61709;SDS011;47633;51.494;5.386;2023-07-13T07:13:37;9.82;;;5.10;;
61709;SDS011;47633;51.494;5.386;2023-07-13T07:16:02;12.48;;;5.97;;
61709;SDS011;47633;51.494;5.386;2023-07-13T07:18:28;12.68;;;5.15;;
61709;SDS011;47633;51.494;5.386;2023-07-13T07:20:53;14.57;;;4.82;;
61709;SDS011;47633;51.494;5.386;2023-07-13T07:23:19;13.15;;;5.45;;
61709;SDS011;47633;51.494;5.386;2023-07-13T07:25:44;12.90;;;5.05;;
61709;SDS011;47633;51.494;5.386;2023-07-13T07:28:12;10.02;;;4.78;;
61709;SDS011;47633;51.494;5.386;2023-07-13T07:30:43;14.43;;;4.82;;
61709;SDS011;47633;51.494;5.386;2023-07-13T07:33:09;12.70;;;5.13;;
61709;SDS011;47633;51.494;5.386;2023-07-13T07:35:34;12.35;;;4.70;;
61709;SDS011;47633;51.494;5.386;2023-07-13T07:37:59;15.52;;;5.18;;
61709;SDS011;47633;51.494;5.386;2023-07-13T07:40:25;10.60;;;4.68;;
61709;SDS011;47633;51.494;5.386;2023-07-13T07:42:51;10.02;;;4.38;;
61709;SDS011;47633;51.494;5.386;2023-07-13T07:45:17;12.23;;;4.30;;
61709;SDS011;47633;51.494;5.386;2023-07-13T07:47:42;11.38;;;4.28;;
61709;SDS011;47633;51.494;5.386;2023-07-13T07:50:07;11.55;;;3.58;;
61709;SDS011;47633;51.494;5.386;2023-07-13T07:52:33;8.80;;;3.72;;
61709;SDS011;47633;51.494;5.386;2023-07-13T07:54:59;9.30;;;3.80;;
61709;SDS011;47633;51.494;5.386;2023-07-13T07:57:24;11.40;;;3.80;;
61709;SDS011;47633;51.494;5.386;2023-07-13T07:59:50;10.10;;;4.20;;
61709;SDS011;47633;51.494;5.386;2023-07-13T08:02:15;10.45;;;3.70;;
61709;SDS011;47633;51.494;5.386;2023-07-13T08:04:41;10.70;;;4.22;;
61709;SDS011;47633;51.494;5.386;2023-07-13T08:07:07;10.15;;;3.70;;
61709;SDS011;47633;51.494;5.386;2023-07-13T08:09:36;8.27;;;3.38;;
61709;SDS011;47633;51.494;5.386;2023-07-13T08:12:01;9.30;;;3.70;;
61709;SDS011;47633;51.494;5.386;2023-07-13T08:14:27;11.02;;;3.58;;
61709;SDS011;47633;51.494;5.386;2023-07-13T08:16:52;7.95;;;3.22;;
61709;SDS011;47633;51.494;5.386;2023-07-13T08:19:18;9.20;;;3.72;;
61709;SDS011;47633;51.494;5.386;2023-07-13T08:21:44;8.05;;;3.35;;
61709;SDS011;47633;51.494;5.386;2023-07-13T08:24:09;8.93;;;2.90;;
61709;SDS011;47633;51.494;5.386;2023-07-13T08:26:35;10.75;;;3.70;;
61709;SDS011;47633;51.494;5.386;2023-07-13T08:29:00;11.32;;;3.95;;
61709;SDS011;47633;51.494;5.386;2023-07-13T08:31:26;9.27;;;3.65;;
61709;SDS011;47633;51.494;5.386;2023-07-13T08:33:51;9.30;;;3.45;;
61709;SDS011;47633;51.494;5.386;2023-07-13T08:36:16;11.70;;;3.20;;
61709;SDS011;47633;51.494;5.386;2023-07-13T08:38:42;8.43;;;3.10;;
61709;SDS011;47633;51.494;5.386;2023-07-13T08:41:12;10.80;;;3.75;;
61709;SDS011;47633;51.494;5.386;2023-07-13T08:43:39;10.13;;;3.40;;
61709;SDS011;47633;51.494;5.386;2023-07-13T08:46:15;8.18;;;3.50;;
61709;SDS011;47633;51.494;5.386;2023-07-13T08:48:52;8.18;;;3.63;;
61709;SDS011;47633;51.494;5.386;2023-07-13T08:54:10;8.45;;;3.30;;
61709;SDS011;47633;51.494;5.386;2023-07-13T08:56:43;8.20;;;3.00;;
61709;SDS011;47633;51.494;5.386;2023-07-13T08:59:12;6.55;;;2.90;;
61709;SDS011;47633;51.494;5.386;2023-07-13T09:04:37;7.88;;;3.15;;
61709;SDS011;47633;51.494;5.386;2023-07-13T09:07:12;7.53;;;3.47;;
61709;SDS011;47633;51.494;5.386;2023-07-13T09:15:17;7.47;;;3.17;;
61709;SDS011;47633;51.494;5.386;2023-07-13T09:17:50;7.13;;;2.72;;
61709;SDS011;47633;51.494;5.386;2023-07-13T09:20:22;7.78;;;3.03;;
61709;SDS011;47633;51.494;5.386;2023-07-13T09:22:52;8.77;;;3.35;;
61709;SDS011;47633;51.494;5.386;2023-07-13T09:27:57;6.55;;;2.65;;
61709;SDS011;47633;51.494;5.386;2023-07-13T09:30:35;6.50;;;2.72;;
61709;SDS011;47633;51.494;5.386;2023-07-13T09:33:05;6.35;;;2.55;;
61709;SDS011;47633;51.494;5.386;2023-07-13T09:35:30;5.47;;;2.75;;
61709;SDS011;47633;51.494;5.386;2023-07-13T09:38:02;10.38;;;3.00;;
61709;SDS011;47633;51.494;5.386;2023-07-13T09:43:17;6.32;;;2.70;;
61709;SDS011;47633;51.494;5.386;2023-07-13T09:45:45;8.23;;;2.97;;
61709;SDS011;47633;51.494;5.386;2023-07-13T09:48:13;7.40;;;2.95;;
61709;SDS011;47633;51.494;5.386;2023-07-13T09:50:40;6.53;;;2.58;;
61709;SDS011;47633;51.494;5.386;2023-07-13T09:53:17;6.18;;;2.55;;
61709;SDS011;47633;51.494;5.386;2023-07-13T09:55:45;6.90;;;2.80;;
61709;SDS011;47633;51.494;5.386;2023-07-13T10:00:37;6.93;;;2.70;;
61709;SDS011;47633;51.494;5.386;2023-07-13T10:05:43;7.20;;;2.67;;
61709;SDS011;47633;51.494;5.386;2023-07-13T10:08:16;6.68;;;2.63;;
61709;SDS011;47633;51.494;5.386;2023-07-13T10:10:43;10.35;;;2.88;;
61709;SDS011;47633;51.494;5.386;2023-07-13T10:13:25;6.00;;;2.20;;
61709;SDS011;47633;51.494;5.386;2023-07-13T10:16:01;6.10;;;2.58;;
61709;SDS011;47633;51.494;5.386;2023-07-13T10:18:38;6.70;;;2.60;;
61709;SDS011;47633;51.494;5.386;2023-07-13T10:21:20;7.07;;;2.30;;
61709;SDS011;47633;51.494;5.386;2023-07-13T10:23:50;6.40;;;2.42;;
61709;SDS011;47633;51.494;5.386;2023-07-13T10:26:21;5.72;;;2.30;;
61709;SDS011;47633;51.494;5.386;2023-07-13T10:28:52;6.18;;;2.25;;
61709;SDS011;47633;51.494;5.386;2023-07-13T10:31:21;8.05;;;2.35;;
61709;SDS011;47633;51.494;5.386;2023-07-13T10:33:48;6.20;;;2.38;;
61709;SDS011;47633;51.494;5.386;2023-07-13T10:38:55;6.03;;;2.58;;
61709;SDS011;47633;51.494;5.386;2023-07-13T10:41:24;6.57;;;2.45;;
61709;SDS011;47633;51.494;5.386;2023-07-13T10:43:53;4.97;;;2.10;;
61709;SDS011;47633;51.494;5.386;2023-07-13T10:46:22;10.23;;;2.30;;
61709;SDS011;47633;51.494;5.386;2023-07-13T10:48:55;5.82;;;2.17;;
61709;SDS011;47633;51.494;5.386;2023-07-13T10:51:29;4.63;;;1.80;;
61709;SDS011;47633;51.494;5.386;2023-07-13T10:56:36;6.93;;;2.00;;
61709;SDS011;47633;51.494;5.386;2023-07-13T11:04:23;5.82;;;2.70;;
61709;SDS011;47633;51.494;5.386;2023-07-13T11:06:52;6.03;;;2.70;;
61709;SDS011;47633;51.494;5.386;2023-07-13T11:12:54;7.22;;;2.20;;
61709;SDS011;47633;51.494;5.386;2023-07-13T11:15:12;6.22;;;2.30;;
61709;SDS011;47633;51.494;5.386;2023-07-13T11:17:48;7.32;;;2.85;;
61709;SDS011;47633;51.494;5.386;2023-07-13T11:22:42;6.55;;;2.60;;
61709;SDS011;47633;51.494;5.386;2023-07-13T11:25:26;5.15;;;2.03;;
61709;SDS011;47633;51.494;5.386;2023-07-13T11:30:39;5.32;;;2.22;;
61709;SDS011;47633;51.494;5.386;2023-07-13T11:33:10;6.10;;;2.60;;
61709;SDS011;47633;51.494;5.386;2023-07-13T11:38:31;5.47;;;2.38;;
61709;SDS011;47633;51.494;5.386;2023-07-13T11:41:06;9.35;;;3.58;;
61709;SDS011;47633;51.494;5.386;2023-07-13T11:43:54;7.60;;;3.42;;
61709;SDS011;47633;51.494;5.386;2023-07-13T11:46:27;9.40;;;3.53;;
61709;SDS011;47633;51.494;5.386;2023-07-13T11:48:54;6.85;;;3.30;;
61709;SDS011;47633;51.494;5.386;2023-07-13T11:53:52;8.38;;;3.63;;
61709;SDS011;47633;51.494;5.386;2023-07-13T11:56:18;8.52;;;3.17;;
61709;SDS011;47633;51.494;5.386;2023-07-13T11:58:47;9.57;;;3.10;;
61709;SDS011;47633;51.494;5.386;2023-07-13T12:01:36;10.35;;;3.35;;
61709;SDS011;47633;51.494;5.386;2023-07-13T12:04:03;6.35;;;3.00;;
61709;SDS011;47633;51.494;5.386;2023-07-13T12:08:57;8.23;;;2.83;;
61709;SDS011;47633;51.494;5.386;2023-07-13T12:11:24;8.07;;;3.20;;
61709;SDS011;47633;51.494;5.386;2023-07-13T12:13:50;6.82;;;3.00;;
61709;SDS011;47633;51.494;5.386;2023-07-13T12:16:25;8.45;;;3.55;;
61709;SDS011;47633;51.494;5.386;2023-07-13T12:18:52;10.75;;;3.35;;
61709;SDS011;47633;51.494;5.386;2023-07-13T12:21:19;8.38;;;3.28;;
61709;SDS011;47633;51.494;5.386;2023-07-13T12:23:48;5.80;;;2.63;;
61709;SDS011;47633;51.494;5.386;2023-07-13T12:26:15;6.80;;;2.72;;
61709;SDS011;47633;51.494;5.386;2023-07-13T12:36:24;11.13;;;3.15;;
61709;SDS011;47633;51.494;5.386;2023-07-13T12:38:50;9.82;;;3.25;;
61709;SDS011;47633;51.494;5.386;2023-07-13T12:41:16;24.67;;;4.07;;
61709;SDS011;47633;51.494;5.386;2023-07-13T12:43:42;8.60;;;3.00;;
61709;SDS011;47633;51.494;5.386;2023-07-13T12:48:44;10.63;;;3.47;;
61709;SDS011;47633;51.494;5.386;2023-07-13T12:51:12;10.35;;;3.97;;
61709;SDS011;47633;51.494;5.386;2023-07-13T12:53:40;8.43;;;2.85;;
61709;SDS011;47633;51.494;5.386;2023-07-13T12:56:08;10.55;;;3.40;;
61709;SDS011;47633;51.494;5.386;2023-07-13T12:58:43;9.23;;;2.60;;
61709;SDS011;47633;51.494;5.386;2023-07-13T13:01:12;8.32;;;2.85;;
61709;SDS011;47633;51.494;5.386;2023-07-13T13:03:39;8.60;;;2.97;;
61709;SDS011;47633;51.494;5.386;2023-07-13T13:08:40;9.05;;;2.83;;
61709;SDS011;47633;51.494;5.386;2023-07-13T13:11:07;9.20;;;2.53;;
61709;SDS011;47633;51.494;5.386;2023-07-13T13:13:34;6.20;;;2.70;;
61709;SDS011;47633;51.494;5.386;2023-07-13T13:18:42;9.98;;;2.78;;
61709;SDS011;47633;51.494;5.386;2023-07-13T13:21:08;9.45;;;2.78;;
61709;SDS011;47633;51.494;5.386;2023-07-13T13:23:34;7.22;;;2.45;;
61709;SDS011;47633;51.494;5.386;2023-07-13T13:26:00;8.10;;;2.42;;
61709;SDS011;47633;51.494;5.386;2023-07-13T13:28:26;8.95;;;2.70;;
61709;SDS011;47633;51.494;5.386;2023-07-13T13:30:52;6.75;;;2.60;;
61709;SDS011;47633;51.494;5.386;2023-07-13T13:33:18;5.80;;;2.47;;
61709;SDS011;47633;51.494;5.386;2023-07-13T13:35:45;7.60;;;2.08;;
61709;SDS011;47633;51.494;5.386;2023-07-13T13:38:15;7.07;;;2.60;;
61709;SDS011;47633;51.494;5.386;2023-07-13T13:40:43;7.45;;;2.30;;
61709;SDS011;47633;51.494;5.386;2023-07-13T13:43:16;6.68;;;2.40;;
61709;SDS011;47633;51.494;5.386;2023-07-13T13:45:52;7.85;;;2.63;;
61709;SDS011;47633;51.494;5.386;2023-07-13T13:48:23;6.78;;;2.50;;
61709;SDS011;47633;51.494;5.386;2023-07-13T13:51:01;11.70;;;2.45;;
61709;SDS011;47633;51.494;5.386;2023-07-13T13:53:39;6.53;;;2.22;;
61709;SDS011;47633;51.494;5.386;2023-07-13T13:56:05;5.90;;;2.35;;
61709;SDS011;47633;51.494;5.386;2023-07-13T13:58:30;8.00;;;2.25;;
61709;SDS011;47633;51.494;5.386;2023-07-13T14:00:56;6.28;;;2.22;;
61709;SDS011;47633;51.494;5.386;2023-07-13T14:03:23;5.82;;;2.30;;
61709;SDS011;47633;51.494;5.386;2023-07-13T14:05:49;7.30;;;2.25;;
61709;SDS011;47633;51.494;5.386;2023-07-13T14:08:15;7.03;;;2.40;;
61709;SDS011;47633;51.494;5.386;2023-07-13T14:10:42;5.45;;;2.47;;
61709;SDS011;47633;51.494;5.386;2023-07-13T14:13:32;6.72;;;2.33;;
61709;SDS011;47633;51.494;5.386;2023-07-13T14:16:09;7.50;;;2.20;;
61709;SDS011;47633;51.494;5.386;2023-07-13T14:18:37;7.13;;;2.35;;
61709;SDS011;47633;51.494;5.386;2023-07-13T14:21:03;4.68;;;1.83;;
61709;SDS011;47633;51.494;5.386;2023-07-13T14:23:33;7.45;;;2.20;;
61709;SDS011;47633;51.494;5.386;2023-07-13T14:25:58;6.57;;;2.08;;
61709;SDS011;47633;51.494;5.386;2023-07-13T14:28:25;6.50;;;1.88;;
61709;SDS011;47633;51.494;5.386;2023-07-13T14:30:52;7.78;;;2.30;;
61709;SDS011;47633;51.494;5.386;2023-07-13T14:33:19;7.07;;;2.00;;
61709;SDS011;47633;51.494;5.386;2023-07-13T14:35:45;5.78;;;2.45;;
61709;SDS011;47633;51.494;5.386;2023-07-13T14:38:15;6.07;;;2.05;;
61709;SDS011;47633;51.494;5.386;2023-07-13T14:40:43;5.63;;;2.10;;
61709;SDS011;47633;51.494;5.386;2023-07-13T14:43:13;5.93;;;2.10;;
61709;SDS011;47633;51.494;5.386;2023-07-13T14:45:40;5.70;;;1.98;;
61709;SDS011;47633;51.494;5.386;2023-07-13T14:48:15;7.07;;;1.75;;
61709;SDS011;47633;51.494;5.386;2023-07-13T14:50:42;5.13;;;1.83;;
61709;SDS011;47633;51.494;5.386;2023-07-13T14:53:11;8.68;;;2.35;;
61709;SDS011;47633;51.494;5.386;2023-07-13T14:55:38;13.65;;;3.95;;
61709;SDS011;47633;51.494;5.386;2023-07-13T14:58:04;23.33;;;6.28;;
61709;SDS011;47633;51.494;5.386;2023-07-13T15:00:30;27.10;;;6.68;;
61709;SDS011;47633;51.494;5.386;2023-07-13T15:02:56;20.55;;;5.93;;
61709;SDS011;47633;51.494;5.386;2023-07-13T15:05:25;12.82;;;4.10;;
61709;SDS011;47633;51.494;5.386;2023-07-13T15:07:52;15.82;;;4.43;;
61709;SDS011;47633;51.494;5.386;2023-07-13T15:10:22;12.95;;;4.22;;
61709;SDS011;47633;51.494;5.386;2023-07-13T15:12:51;10.60;;;3.58;;
61709;SDS011;47633;51.494;5.386;2023-07-13T15:15:18;11.27;;;4.25;;
61709;SDS011;47633;51.494;5.386;2023-07-13T15:17:44;10.60;;;3.53;;
61709;SDS011;47633;51.494;5.386;2023-07-13T15:20:26;11.90;;;3.50;;
61709;SDS011;47633;51.494;5.386;2023-07-13T15:22:56;13.00;;;4.32;;
61709;SDS011;47633;51.494;5.386;2023-07-13T15:25:25;14.00;;;3.92;;
61709;SDS011;47633;51.494;5.386;2023-07-13T15:27:52;8.85;;;3.47;;
61709;SDS011;47633;51.494;5.386;2023-07-13T15:30:19;8.70;;;4.10;;
61709;SDS011;47633;51.494;5.386;2023-07-13T15:32:46;26.63;;;7.95;;
61709;SDS011;47633;51.494;5.386;2023-07-13T15:35:19;32.83;;;9.93;;
61709;SDS011;47633;51.494;5.386;2023-07-13T15:37:50;49.67;;;14.07;;
61709;SDS011;47633;51.494;5.386;2023-07-13T15:40:16;58.08;;;15.93;;
61709;SDS011;47633;51.494;5.386;2023-07-13T15:42:43;51.72;;;15.65;;
61709;SDS011;47633;51.494;5.386;2023-07-13T15:45:20;49.72;;;14.95;;
61709;SDS011;47633;51.494;5.386;2023-07-13T15:47:48;49.00;;;14.30;;
61709;SDS011;47633;51.494;5.386;2023-07-13T15:50:21;39.38;;;13.98;;
61709;SDS011;47633;51.494;5.386;2023-07-13T15:52:51;42.58;;;12.77;;
61709;SDS011;47633;51.494;5.386;2023-07-13T15:55:23;37.00;;;11.68;;